Time;durP1;ratioP1;P1;durP2;ratioP2;P2;SDS_P1;SDS_P2;PMS_P1;PMS_P2;Temp;Humidity;BMP_temperature;BMP_pressure;BME280_temperature;BME280_humidity;BME280_pressure;Samples;Min_cycle;Max_cycle;Signal;HPM_P1;HPM_P2
2022/12/30 00:01:18;;;;;;;0.65;0.50;;;;;;;11.53;40.29;98755.22;6042613;23;20014;-86
2022/12/30 00:03:44;;;;;;;0.50;0.50;;;;;;;11.60;40.06;98766.59;6018826;23;20335;-86
2022/12/30 00:06:19;;;;;;;0.60;0.60;;;;;;;11.69;40.25;98784.97;6018491;23;20039;-86
2022/12/30 00:08:46;;;;;;;0.60;0.50;;;;;;;11.39;40.43;98727.09;6020699;23;20029;-86
2022/12/30 00:11:19;;;;;;;0.60;0.60;;;;;;;11.63;40.38;98754.63;6019176;23;20007;-86
2022/12/30 00:34:23;;;;;;;0.50;0.50;;;;;;;11.58;40.41;98730.44;6041586;23;20198;-86
2022/12/30 00:36:49;;;;;;;0.60;0.60;;;;;;;11.56;40.25;98721.84;6047254;23;20045;-86
2022/12/30 00:39:15;;;;;;;0.60;0.55;;;;;;;11.63;40.29;98739.38;6043187;23;20144;-86
2022/12/30 00:44:25;;;;;;;0.50;0.50;;;;;;;11.73;40.36;98737.97;6051989;23;20388;-86
2022/12/30 00:46:51;;;;;;;0.30;0.30;;;;;;;11.67;40.35;98734.38;6020926;23;20130;-86
2022/12/30 00:57:28;;;;;;;0.40;0.40;;;;;;;11.70;40.61;98723.19;6052266;23;20033;-86
2022/12/30 00:59:54;;;;;;;0.50;0.50;;;;;;;11.81;40.45;98733.09;6021343;23;20007;-86
2022/12/30 01:02:21;;;;;;;0.40;0.40;;;;;;;11.55;40.67;98693.44;6020072;23;20014;-86
2022/12/30 01:04:46;;;;;;;0.52;0.52;;;;;;;11.59;40.21;98690.06;6020207;23;20041;-86
2022/12/30 01:07:12;;;;;;;0.47;0.40;;;;;;;11.54;40.26;98681.09;6019599;23;20010;-86
2022/12/30 01:09:38;;;;;;;0.45;0.45;;;;;;;11.74;40.31;98712.84;6019642;23;20042;-86
2022/12/30 01:12:07;;;;;;;0.63;0.63;;;;;;;11.77;40.42;98707.00;6019375;23;20373;-86
2022/12/30 01:14:41;;;;;;;0.40;0.40;;;;;;;11.91;40.29;98723.66;6020804;23;20348;-86
2022/12/30 01:17:08;;;;;;;0.43;0.43;;;;;;;11.68;40.47;98682.50;6043326;23;20018;-86
2022/12/30 01:19:33;;;;;;;0.47;0.47;;;;;;;11.81;40.51;98705.47;6019680;23;20049;-86
2022/12/30 01:21:59;;;;;;;0.40;0.40;;;;;;;11.76;40.01;98687.47;6019660;23;20388;-87
2022/12/30 01:24:25;;;;;;;0.50;0.50;;;;;;;11.78;40.36;98690.72;6019657;23;20314;-86
2022/12/30 01:26:51;;;;;;;0.40;0.40;;;;;;;11.66;40.33;98673.88;6017967;23;20010;-86
2022/12/30 01:29:28;;;;;;;0.30;0.30;;;;;;;11.92;40.60;98712.72;6043399;23;20091;-85
2022/12/30 01:31:54;;;;;;;0.40;0.40;;;;;;;11.80;40.29;98707.34;6021154;23;20010;-86
2022/12/30 01:34:20;;;;;;;1.27;0.50;;;;;;;11.79;40.56;98705.72;6019421;23;20014;-86
2022/12/30 01:36:46;;;;;;;0.47;0.40;;;;;;;11.75;40.14;98693.88;6019591;23;20014;-86
2022/12/30 01:39:12;;;;;;;0.43;0.43;;;;;;;11.63;40.13;98674.34;6019910;23;20014;-86
2022/12/30 01:41:37;;;;;;;0.52;0.40;;;;;;;11.55;40.60;98661.34;6019435;23;20014;-86
2022/12/30 01:44:41;;;;;;;0.40;0.40;;;;;;;11.54;40.52;98671.25;6015415;23;20014;-87
2022/12/30 01:47:07;;;;;;;0.40;0.40;;;;;;;11.82;40.32;98712.47;6066921;23;20367;-86
2022/12/30 01:49:33;;;;;;;0.40;0.40;;;;;;;11.63;40.52;98685.88;6043359;23;20006;-87
2022/12/30 01:52:02;;;;;;;0.40;0.40;;;;;;;11.72;40.59;98691.66;6019807;23;20021;-86
2022/12/30 01:54:28;;;;;;;0.40;0.40;;;;;;;11.68;40.30;98687.84;6018831;23;20017;-86
2022/12/30 01:56:56;;;;;;;0.40;0.40;;;;;;;11.77;40.42;98707.81;6042804;23;20010;-86
2022/12/30 01:59:23;;;;;;;0.40;0.40;;;;;;;11.73;40.46;98695.13;6019950;23;20533;-87
2022/12/30 02:01:49;;;;;;;0.38;0.38;;;;;;;11.62;40.47;98670.03;6043327;23;20020;-87
2022/12/30 02:04:23;;;;;;;0.40;0.40;;;;;;;11.80;40.42;98695.84;6018793;23;20406;-86
2022/12/30 02:07:05;;;;;;;0.52;0.50;;;;;;;11.92;40.64;98703.88;6019106;23;20014;-87
2022/12/30 02:09:31;;;;;;;0.50;0.45;;;;;;;11.80;40.51;98695.84;6043069;23;20335;-87
2022/12/30 02:11:57;;;;;;;0.38;0.38;;;;;;;11.90;40.54;98708.59;6019724;23;20011;-87
2022/12/30 02:14:23;;;;;;;0.43;0.43;;;;;;;11.81;40.71;98684.91;6019146;23;20020;-87
2022/12/30 02:16:58;;;;;;;0.52;0.52;;;;;;;11.93;40.63;98694.78;6017185;23;20120;-87
2022/12/30 02:19:52;;;;;;;0.50;0.50;;;;;;;11.77;40.74;98680.25;6066645;23;20344;-87
2022/12/30 02:22:29;;;;;;;0.50;0.50;;;;;;;11.94;40.66;98688.38;6045452;23;20014;-87
2022/12/30 02:25:33;;;;;;;0.40;0.40;;;;;;;11.98;40.34;98692.19;6067006;23;20060;-87
2022/12/30 02:28:22;;;;;;;0.40;0.40;;;;;;;11.74;40.45;98653.97;6066666;23;20088;-87
2022/12/30 02:31:09;;;;;;;0.43;0.40;;;;;;;11.92;40.58;98693.16;6021786;23;20011;-87
2022/12/30 02:33:52;;;;;;;0.52;0.52;;;;;;;11.72;40.57;98656.88;6066919;23;20265;-87
2022/12/30 02:36:23;;;;;;;0.40;0.40;;;;;;;11.61;40.81;98652.38;6021550;23;20006;-87
2022/12/30 02:39:02;;;;;;;0.40;0.40;;;;;;;11.65;40.50;98650.84;6043578;23;20006;-87
2022/12/30 02:44:49;;;;;;;0.30;0.30;;;;;;;11.65;40.72;98634.78;6051090;23;20017;-88
2022/12/30 02:47:28;;;;;;;0.40;0.40;;;;;;;11.73;40.61;98649.66;6044936;23;20021;-88
2022/12/30 02:52:49;;;;;;;0.40;0.40;;;;;;;11.67;40.71;98632.69;6050996;23;20065;-87
2022/12/30 02:55:15;;;;;;;0.60;0.35;;;;;;;11.64;40.59;98622.44;6019361;23;20042;-87
2022/12/30 02:57:41;;;;;;;0.38;0.38;;;;;;;11.74;40.58;98643.25;6019379;23;20146;-88
2022/12/30 03:03:57;;;;;;;0.50;0.50;;;;;;;11.66;40.78;98633.75;6050193;23;20148;-88
2022/12/30 03:07:00;;;;;;;0.28;0.28;;;;;;;11.97;40.64;98674.50;6024912;23;20102;-88
2022/12/30 03:09:32;;;;;;;0.73;0.60;;;;;;;11.97;40.70;98672.66;6025003;23;20015;-87
2022/12/30 03:12:03;;;;;;;0.47;0.47;;;;;;;12.00;40.68;98679.38;6062556;23;20011;-87
2022/12/30 03:14:36;;;;;;;0.40;0.30;;;;;;;11.51;40.64;98609.38;6038003;23;20003;-88
2022/12/30 03:17:10;;;;;;;0.45;0.40;;;;;;;11.76;40.86;98652.69;6037410;23;20017;-87
2022/12/30 03:19:42;;;;;;;0.50;0.32;;;;;;;11.67;40.79;98621.19;6014960;23;20198;-87
2022/12/30 03:27:03;;;;;;;0.40;0.40;;;;;;;11.70;40.58;98624.19;6014716;23;20011;-88
2022/12/30 03:27:38;;;;;;;0.73;0.50;;;;;;;11.89;40.71;98635.53;6042386;23;20022;-88
2022/12/30 03:30:04;;;;;;;0.40;0.40;;;;;;;11.84;40.72;98656.84;6015451;23;20011;-87
2022/12/30 03:32:30;;;;;;;0.40;0.40;;;;;;;11.77;40.86;98640.09;6014827;23;20003;-88
2022/12/30 03:34:56;;;;;;;0.50;0.43;;;;;;;11.80;40.65;98627.06;6014332;23;20007;-88
2022/12/30 03:37:29;;;;;;;0.30;0.30;;;;;;;11.86;40.67;98629.84;6014764;23;20007;-87
2022/12/30 03:40:01;;;;;;;0.28;0.28;;;;;;;11.73;40.77;98615.69;6015371;23;20246;-87
2022/12/30 03:42:27;;;;;;;0.40;0.40;;;;;;;11.72;41.01;98614.06;6014062;23;20018;-87
2022/12/30 03:44:53;;;;;;;0.38;0.38;;;;;;;11.78;40.83;98629.16;6014591;23;20015;-87
2022/12/30 03:47:18;;;;;;;0.38;0.30;;;;;;;11.96;40.67;98640.75;6015372;23;20049;-87
2022/12/30 03:49:44;;;;;;;0.75;0.50;;;;;;;11.89;40.79;98635.53;6014236;23;20566;-87
2022/12/30 03:52:14;;;;;;;0.30;0.30;;;;;;;11.89;41.10;98653.44;6014844;23;20071;-87
2022/12/30 03:54:40;;;;;;;0.47;0.40;;;;;;;11.81;40.82;98631.38;6038701;23;20010;-88
2022/12/30 03:57:06;;;;;;;0.30;0.30;;;;;;;12.02;40.64;98666.56;6014589;23;20066;-87
2022/12/30 03:59:34;;;;;;;0.40;0.40;;;;;;;11.72;40.76;98624.75;6014798;23;20121;-88
2022/12/30 04:02:00;;;;;;;0.60;0.40;;;;;;;11.70;40.81;98624.19;6014983;23;20400;-87
2022/12/30 04:04:26;;;;;;;0.40;0.40;;;;;;;11.75;40.65;98608.22;6041558;23;20021;-87
2022/12/30 04:06:51;;;;;;;0.45;0.45;;;;;;;11.78;40.61;98618.47;6018226;23;20010;-88
2022/12/30 04:09:17;;;;;;;0.43;0.40;;;;;;;11.83;40.79;98625.75;6042166;23;20308;-88
2022/12/30 04:11:43;;;;;;;0.40;0.40;;;;;;;11.90;40.86;98633.66;6020877;23;20057;-87
2022/12/30 04:14:10;;;;;;;0.30;0.30;;;;;;;11.87;40.74;98618.88;6045000;23;20010;-88
2022/12/30 04:16:38;;;;;;;0.30;0.30;;;;;;;11.86;40.80;98619.13;6044870;23;20332;-88
2022/12/30 04:19:04;;;;;;;0.20;0.20;;;;;;;11.90;40.58;98626.44;6019886;23;20018;-88
2022/12/30 04:21:30;;;;;;;0.30;0.30;;;;;;;12.04;40.88;98651.09;6039692;23;20029;-88
2022/12/30 04:23:55;;;;;;;0.60;0.50;;;;;;;11.76;40.76;98599.16;6039585;23;20002;-87
2022/12/30 04:26:21;;;;;;;0.40;0.38;;;;;;;11.96;40.70;98630.06;6015283;23;20266;-87
2022/12/30 04:28:47;;;;;;;0.30;0.30;;;;;;;11.82;40.70;98622.28;6039286;23;20030;-87
2022/12/30 04:31:12;;;;;;;0.30;0.30;;;;;;;11.65;40.75;98594.66;6015924;23;20037;-87
2022/12/30 04:33:38;;;;;;;0.30;0.30;;;;;;;11.88;40.80;98619.69;6040329;23;20006;-87
2022/12/30 04:36:04;;;;;;;0.40;0.40;;;;;;;11.74;40.64;98601.25;6044033;23;20055;-88
2022/12/30 04:38:30;;;;;;;0.30;0.30;;;;;;;11.80;40.75;98605.66;6020450;23;20240;-87
2022/12/30 04:40:56;;;;;;;0.38;0.38;;;;;;;11.83;40.62;98615.03;6020995;23;20006;-87
2022/12/30 04:43:21;;;;;;;0.40;0.40;;;;;;;11.85;40.50;98604.94;6020605;23;20014;-88
2022/12/30 04:45:47;;;;;;;0.80;0.40;;;;;;;12.03;40.66;98628.03;6044425;23;20437;-87
2022/12/30 04:48:13;;;;;;;0.40;0.40;;;;;;;11.87;40.66;98610.06;6043736;23;20022;-87
2022/12/30 04:50:43;;;;;;;0.57;0.55;;;;;;;11.94;40.67;98621.47;6044423;23;20010;-87
2022/12/30 04:53:09;;;;;;;0.38;0.38;;;;;;;11.99;40.70;98621.56;6044308;23;20010;-87
2022/12/30 04:55:35;;;;;;;0.40;0.40;;;;;;;12.03;40.63;98625.38;6021028;23;20373;-87
2022/12/30 04:58:01;;;;;;;0.40;0.40;;;;;;;11.81;40.78;98591.22;6020975;23;20032;-87
2022/12/30 05:00:26;;;;;;;0.45;0.40;;;;;;;11.99;40.55;98619.69;6043639;23;20006;-87
2022/12/30 05:02:52;;;;;;;0.40;0.40;;;;;;;11.90;40.57;98609.56;6020947;23;20010;-87
2022/12/30 05:05:18;;;;;;;0.30;0.30;;;;;;;11.94;40.55;98610.75;6044211;23;20022;-87
2022/12/30 05:07:44;;;;;;;0.40;0.32;;;;;;;11.76;40.86;98583.09;6043902;23;20298;-87
2022/12/30 05:10:09;;;;;;;0.30;0.30;;;;;;;11.87;40.90;98600.16;6020555;23;20006;-87
2022/12/30 05:12:35;;;;;;;0.30;0.30;;;;;;;11.80;40.75;98586.91;6043732;23;20010;-87
2022/12/30 05:15:01;;;;;;;0.50;0.50;;;;;;;11.76;40.76;98582.28;6020601;23;20010;-87
2022/12/30 05:17:27;;;;;;;0.30;0.30;;;;;;;11.96;40.73;98614.00;6020426;23;20002;-87
2022/12/30 05:19:53;;;;;;;0.65;0.45;;;;;;;11.85;40.63;98602.25;6044148;23;20062;-88
2022/12/30 05:22:18;;;;;;;0.30;0.30;;;;;;;11.88;40.82;98590.25;6020150;23;20041;-87
2022/12/30 05:27:28;;;;;;;0.30;0.30;;;;;;;11.95;40.63;98602.47;6051812;23;20021;-87
2022/12/30 05:29:54;;;;;;;0.50;0.25;;;;;;;11.86;40.71;98592.34;6020207;23;20030;-87
2022/12/30 05:32:20;;;;;;;0.40;0.40;;;;;;;11.92;40.58;98596.78;6019908;23;20457;-87
2022/12/30 05:34:45;;;;;;;0.30;0.30;;;;;;;11.91;41.11;98595.16;6020153;23;20448;-87
2022/12/30 05:37:11;;;;;;;0.30;0.30;;;;;;;12.05;40.70;98625.13;6043531;23;20002;-87
2022/12/30 05:39:37;;;;;;;0.30;0.30;;;;;;;11.95;40.89;98607.00;6044003;23;20014;-87
2022/12/30 05:42:03;;;;;;;0.32;0.32;;;;;;;11.89;40.70;98590.00;6020810;23;20012;-87
2022/12/30 05:44:31;;;;;;;0.30;0.30;;;;;;;11.98;40.78;98618.03;6044226;23;20147;-87
2022/12/30 05:46:57;;;;;;;0.40;0.40;;;;;;;12.04;40.87;98624.31;6021741;23;20010;-87
2022/12/30 05:49:23;;;;;;;0.40;0.40;;;;;;;11.69;41.01;98581.59;6020700;23;20003;-87
2022/12/30 05:51:49;;;;;;;0.40;0.40;;;;;;;11.88;40.84;98600.97;6020181;23;20093;-87
2022/12/30 05:54:14;;;;;;;0.45;0.40;;;;;;;11.90;40.94;98598.84;6020111;23;20010;-87
2022/12/30 05:56:40;;;;;;;0.30;0.30;;;;;;;11.82;40.85;98582.13;6019172;23;20487;-87
2022/12/30 05:59:08;;;;;;;0.40;0.40;;;;;;;12.06;40.61;98614.19;6020252;23;20037;-87
2022/12/30 06:01:34;;;;;;;0.20;0.20;;;;;;;11.95;40.75;98601.66;6020848;23;20002;-87
2022/12/30 06:03:59;;;;;;;0.38;0.38;;;;;;;11.94;40.84;98605.41;6044683;23;20006;-86
2022/12/30 06:06:25;;;;;;;0.30;0.30;;;;;;;12.01;40.86;98627.47;6019239;23;20093;-87
2022/12/30 06:08:51;;;;;;;0.40;0.40;;;;;;;11.99;40.84;98618.88;6020143;23;20006;-87
2022/12/30 06:11:17;;;;;;;0.30;0.30;;;;;;;11.84;40.79;98596.06;6019816;23;20018;-87
2022/12/30 06:13:43;;;;;;;0.30;0.30;;;;;;;11.95;40.86;98615.03;6019881;23;20010;-88
2022/12/30 06:16:08;;;;;;;0.30;0.30;;;;;;;11.95;40.67;98618.53;6042989;23;20343;-88
2022/12/30 06:18:34;;;;;;;0.50;0.35;;;;;;;11.88;40.94;98600.97;6042551;23;20016;-89
2022/12/30 06:21:00;;;;;;;0.35;0.35;;;;;;;11.93;41.08;98612.59;6020183;23;20085;-90
2022/12/30 06:23:26;;;;;;;0.43;0.40;;;;;;;11.94;40.94;98605.41;6019702;23;20448;-90
2022/12/30 06:25:53;;;;;;;0.30;0.30;;;;;;;11.94;40.97;98595.50;6043460;23;20014;-91
2022/12/30 06:28:18;;;;;;;0.40;0.40;;;;;;;11.80;40.96;98584.22;6019540;23;20021;-92
2022/12/30 06:30:44;;;;;;;0.50;0.40;;;;;;;11.90;41.19;98598.84;6043996;23;20336;-89
2022/12/30 06:33:10;;;;;;;0.43;0.43;;;;;;;11.90;41.08;98604.19;6019629;23;20402;-89
2022/12/30 06:35:36;;;;;;;0.70;0.60;;;;;;;12.13;40.92;98641.63;6019642;23;20068;-91
2022/12/30 06:38:02;;;;;;;0.30;0.30;;;;;;;11.83;40.49;98599.81;6020120;23;20010;-94
2022/12/30 06:40:28;;;;;;;0.38;0.38;;;;;;;11.91;40.81;98595.97;6020878;23;20006;-96
2022/12/30 06:42:53;;;;;;;0.30;0.25;;;;;;;12.03;41.08;98630.72;6020866;23;20017;-87
2022/12/30 06:45:19;;;;;;;0.50;0.50;;;;;;;11.94;40.88;98614.22;6019805;23;20010;-87
2022/12/30 06:47:45;;;;;;;0.57;0.40;;;;;;;12.05;40.74;98628.59;6019343;23;20014;-87
2022/12/30 06:50:15;;;;;;;0.45;0.45;;;;;;;11.91;40.76;98598.63;6042873;23;20015;-89
2022/12/30 06:52:41;;;;;;;0.40;0.40;;;;;;;11.97;40.72;98620.94;6043407;23;20396;-93
2022/12/30 07:08:09;;;;;;;0.50;0.50;;;;;;;12.06;41.10;98651.66;6088814;23;20511;-86
2022/12/30 07:10:35;;;;;;;0.30;0.30;;;;;;;12.06;40.96;98662.38;6019288;23;20014;-87
2022/12/30 07:13:00;;;;;;;0.20;0.20;;;;;;;12.07;41.08;98658.63;6019538;23;20438;-88
2022/12/30 07:15:26;;;;;;;0.77;0.30;;;;;;;11.80;41.07;98624.38;6019787;23;20021;-91
2022/12/30 07:17:52;;;;;;;0.30;0.30;;;;;;;11.98;41.04;98649.38;6019336;23;20033;-86
2022/12/30 07:20:18;;;;;;;0.25;0.25;;;;;;;11.81;41.02;98644.75;6019266;23;20376;-86
2022/12/30 07:22:44;;;;;;;0.40;0.40;;;;;;;12.01;40.77;98659.59;6019285;23;20017;-88
2022/12/30 07:25:10;;;;;;;0.40;0.38;;;;;;;12.16;40.92;98683.19;6019496;23;20042;-91
2022/12/30 07:27:35;;;;;;;0.52;0.38;;;;;;;12.04;41.09;98667.16;6019522;23;20068;-86
2022/12/30 07:30:02;;;;;;;0.30;0.30;;;;;;;12.19;40.71;98688.88;6019001;23;20817;-87
2022/12/30 07:32:28;;;;;;;0.30;0.30;;;;;;;11.96;41.14;98656.81;6019506;23;20018;-87
2022/12/30 07:34:54;;;;;;;0.40;0.40;;;;;;;12.01;41.11;98648.91;6019447;23;20332;-89
2022/12/30 07:37:23;;;;;;;0.43;0.40;;;;;;;11.89;41.27;98634.72;6019382;23;20006;-94
2022/12/30 07:39:49;;;;;;;0.40;0.40;;;;;;;11.91;40.73;98648.69;6020520;23;20049;-86
2022/12/30 07:42:14;;;;;;;0.38;0.38;;;;;;;12.09;40.74;98661.06;6018838;23;20396;-86
2022/12/30 07:44:41;;;;;;;0.52;0.40;;;;;;;12.06;40.87;98651.66;6020710;23;20014;-87
2022/12/30 07:47:07;;;;;;;0.45;0.40;;;;;;;11.98;41.05;98644.00;6021116;23;20092;-88
2022/12/30 07:49:33;;;;;;;0.40;0.40;;;;;;;11.90;40.97;98644.34;6021660;23;20026;-93
2022/12/30 12:26:23;;;;;;;0.80;0.50;;;;;;;11.95;42.00;98794.41;6107491;23;20022;-85
2022/12/30 12:28:51;;;;;;;0.65;0.40;;;;;;;12.00;41.78;98807.91;6020054;23;20038;-86
2022/12/30 12:31:35;;;;;;;0.40;0.40;;;;;;;12.17;41.81;98830.22;6043495;23;20317;-85
2022/12/30 12:34:24;;;;;;;0.30;0.30;;;;;;;12.06;41.77;98816.88;6068218;23;20010;-86
2022/12/30 12:37:14;;;;;;;0.40;0.40;;;;;;;12.19;41.72;98838.84;6048304;23;20539;-85
2022/12/30 12:39:55;;;;;;;0.93;0.40;;;;;;;12.17;41.83;98843.59;6044402;23;20011;-86
2022/12/30 12:42:40;;;;;;;1.08;0.40;;;;;;;11.91;41.90;98802.09;6067344;23;20006;-86
2022/12/30 12:45:33;;;;;;;0.57;0.32;;;;;;;12.20;41.89;98845.81;6044463;23;20443;-86
2022/12/30 12:48:41;;;;;;;0.80;0.40;;;;;;;11.78;41.85;98775.53;6068258;23;20036;-86
2022/12/30 12:51:35;;;;;;;0.40;0.40;;;;;;;11.91;41.66;98809.31;6048195;23;20471;-86
2022/12/30 12:54:10;;;;;;;0.70;0.60;;;;;;;12.18;42.07;98845.25;6024703;23;20064;-85
2022/12/30 12:56:54;;;;;;;0.90;0.40;;;;;;;12.16;41.76;98851.91;6068218;23;20010;-85
2022/12/30 12:59:27;;;;;;;;;;;;;;;12.19;41.83;98846.88;6068688;23;20097;-85
2022/12/30 13:02:31;;;;;;;0.65;0.50;;;;;;;11.96;41.79;98812.91;6093440;23;19921;-85
2022/12/30 13:05:09;;;;;;;0.45;0.40;;;;;;;11.99;41.85;98823.16;6025461;23;20010;-85
2022/12/30 13:07:44;;;;;;;0.38;0.38;;;;;;;12.16;41.84;98855.38;6021546;23;20021;-85
2022/12/30 13:10:45;;;;;;;0.40;0.40;;;;;;;12.18;41.86;98864.00;6067813;23;20093;-85
2022/12/30 13:13:24;;;;;;;0.52;0.40;;;;;;;12.06;41.78;98844.44;6068057;23;20010;-85
2022/12/30 13:15:56;;;;;;;1.23;0.50;;;;;;;11.95;41.70;98848.78;6044331;23;20074;-85
2022/12/30 13:18:23;;;;;;;0.80;0.60;;;;;;;12.19;41.55;98881.72;6044471;23;20339;-85
2022/12/30 13:21:00;;;;;;;0.43;0.30;;;;;;;11.87;42.05;98842.94;6043998;23;20002;-85
2022/12/30 13:23:28;;;;;;;0.70;0.55;;;;;;;12.03;41.68;98864.47;6022482;23;20077;-85
2022/12/30 13:25:57;;;;;;;0.30;0.30;;;;;;;12.08;41.53;98879.84;6020073;23;20519;-85
2022/12/30 13:28:24;;;;;;;0.60;0.50;;;;;;;12.07;41.48;98875.53;6020117;23;20011;-85
2022/12/30 13:31:08;;;;;;;1.52;0.50;;;;;;;12.22;41.60;98891.13;6020455;23;20018;-85
2022/12/30 13:33:52;;;;;;;0.50;0.50;;;;;;;12.19;41.59;98895.09;6067915;23;20447;-85
2022/12/30 13:36:45;;;;;;;0.88;0.47;;;;;;;12.17;41.54;98894.50;6067114;23;20380;-85
2022/12/30 13:39:38;;;;;;;0.63;0.47;;;;;;;12.00;41.43;98869.47;6021607;23;20476;-85
2022/12/30 13:42:41;;;;;;;0.50;0.40;;;;;;;12.16;41.77;98900.91;6023294;23;20025;-85
2022/12/30 13:45:28;;;;;;;1.05;0.40;;;;;;;12.15;41.90;98895.78;6067887;23;20274;-85
2022/12/30 13:48:20;;;;;;;0.85;0.50;;;;;;;12.17;41.63;98899.84;6069202;23;20010;-85
2022/12/30 13:50:47;;;;;;;0.32;0.30;;;;;;;11.97;41.60;98867.25;6034821;23;20074;-85
2022/12/30 13:53:38;;;;;;;0.90;0.60;;;;;;;11.94;41.77;98857.03;6044304;23;20054;-85
2022/12/30 13:56:04;;;;;;;1.17;0.52;;;;;;;12.05;41.76;98895.56;6094248;23;20009;-85
2022/12/30 13:58:39;;;;;;;1.60;0.50;;;;;;;11.98;41.85;98879.63;6044277;23;20031;-85
2022/12/30 14:01:20;;;;;;;1.10;0.55;;;;;;;12.24;41.59;98923.03;6044585;23;20010;-85
2022/12/30 14:03:47;;;;;;;1.00;0.60;;;;;;;12.07;41.85;98901.50;6092742;23;20352;-85
2022/12/30 14:06:26;;;;;;;0.43;0.40;;;;;;;12.24;41.68;98936.41;6045293;23;20426;-85
2022/12/30 14:09:15;;;;;;;0.70;0.40;;;;;;;12.11;41.83;98916.88;6042305;23;20017;-85
2022/12/30 14:12:02;;;;;;;1.35;0.50;;;;;;;12.24;41.59;98941.78;6042240;23;20093;-85
2022/12/30 14:14:29;;;;;;;0.77;0.40;;;;;;;11.97;41.45;98900.22;6065304;23;20010;-85
2022/12/30 14:17:16;;;;;;;1.30;0.70;;;;;;;11.87;41.61;98893.81;6019319;23;20455;-86
2022/12/30 14:19:48;;;;;;;0.43;0.43;;;;;;;12.21;41.74;98949.25;6046491;23;20010;-85
2022/12/30 14:22:36;;;;;;;1.05;0.50;;;;;;;12.20;41.33;98952.94;6066405;23;20011;-85
2022/12/30 14:25:03;;;;;;;1.65;0.63;;;;;;;12.18;41.75;98956.94;6066019;23;20066;-85
2022/12/30 14:27:45;;;;;;;0.98;0.50;;;;;;;11.79;41.57;98889.59;6017897;23;20010;-85
2022/12/30 14:30:28;;;;;;;0.60;0.40;;;;;;;12.09;41.70;98939.56;6019887;23;20313;-85
2022/12/30 14:33:19;;;;;;;0.73;0.65;;;;;;;12.20;41.75;98947.59;6045057;23;20002;-85
2022/12/30 14:36:04;;;;;;;1.60;0.50;;;;;;;11.88;41.69;98919.50;6032382;23;20006;-86
2022/12/30 14:38:41;;;;;;;0.50;0.50;;;;;;;11.90;41.79;98920.09;6043381;23;20014;-86
2022/12/30 14:41:10;;;;;;;1.73;0.50;;;;;;;11.98;41.91;98930.47;6042591;23;20463;-85
2022/12/30 14:44:00;;;;;;;1.15;0.65;;;;;;;11.98;41.55;98944.69;6043037;23;20017;-86
2022/12/30 14:46:36;;;;;;;1.23;0.52;;;;;;;12.20;41.83;98963.66;6042244;23;20017;-86
2022/12/30 14:49:20;;;;;;;1.42;0.70;;;;;;;12.20;41.73;98957.50;6066249;23;20023;-86
2022/12/30 14:52:06;;;;;;;2.67;0.60;;;;;;;11.98;41.84;98933.97;6066413;23;20186;-86
2022/12/30 14:54:39;;;;;;;2.95;0.65;;;;;;;12.05;41.83;98949.91;6044777;23;20049;-86
2022/12/30 14:57:16;;;;;;;0.95;0.45;;;;;;;12.17;41.99;98977.50;6042968;23;20006;-86
2022/12/30 14:59:51;;;;;;;1.33;0.88;;;;;;;12.18;41.96;98981.03;6065622;23;20053;-86
2022/12/30 15:02:22;;;;;;;1.20;0.75;;;;;;;11.83;41.79;98931.72;6065581;23;20151;-86
2022/12/30 15:04:49;;;;;;;0.98;0.60;;;;;;;12.18;41.70;98981.03;6041763;23;20011;-86
2022/12/30 15:07:26;;;;;;;1.63;0.68;;;;;;;11.96;41.68;98962.03;6018491;23;20018;-86
2022/12/30 15:09:52;;;;;;;1.83;0.80;;;;;;;12.02;41.77;98967.28;6018573;23;20436;-86
2022/12/30 15:12:19;;;;;;;1.88;0.52;;;;;;;12.05;41.86;98975.88;6041275;23;20078;-86
2022/12/30 15:14:46;;;;;;;1.67;0.70;;;;;;;12.01;41.91;98987.06;6018796;23;20388;-86
2022/12/30 15:17:18;;;;;;;1.10;0.80;;;;;;;12.20;41.79;98998.47;6018663;23;20101;-86
2022/12/30 15:19:44;;;;;;;0.88;0.60;;;;;;;11.88;41.79;98959.66;6041960;23;20351;-86
2022/12/30 15:22:14;;;;;;;1.25;0.70;;;;;;;11.85;41.92;98966.31;6018766;23;20006;-86
2022/12/30 15:24:42;;;;;;;1.95;0.80;;;;;;;11.97;41.72;98977.03;6041441;23;20077;-86
2022/12/30 15:27:21;;;;;;;1.63;0.55;;;;;;;12.18;41.82;99019.34;6018258;23;20033;-86
2022/12/30 15:29:47;;;;;;;1.63;0.55;;;;;;;12.16;41.82;99016.06;6041825;23;20017;-86
2022/12/30 15:32:28;;;;;;;1.75;0.70;;;;;;;11.92;42.00;98966.22;6018215;23;20022;-86
2022/12/30 15:34:56;;;;;;;2.13;0.80;;;;;;;12.04;42.14;98996.50;6018533;23;20006;-86
2022/12/30 15:37:27;;;;;;;1.33;0.65;;;;;;;11.96;41.83;98988.81;6041445;23;20041;-86
2022/12/30 15:39:57;;;;;;;3.08;1.02;;;;;;;11.93;41.91;98959.81;6041517;23;20103;-86
2022/12/30 15:42:27;;;;;;;3.47;0.95;;;;;;;11.98;41.97;98992.06;6041443;23;20018;-86
2022/12/30 15:44:53;;;;;;;2.13;0.77;;;;;;;11.94;41.74;98993.59;6018674;23;20085;-86
2022/12/30 15:47:26;;;;;;;0.60;0.50;;;;;;;11.97;42.05;99011.84;6018465;23;20452;-86
2022/12/30 15:49:57;;;;;;;1.45;0.68;;;;;;;11.93;42.15;98999.97;6018481;23;20013;-86
2022/12/30 15:52:23;;;;;;;3.00;0.90;;;;;;;11.94;42.01;99001.63;6018792;23;20018;-86
2022/12/30 15:54:51;;;;;;;1.90;0.80;;;;;;;11.98;42.11;99013.47;6018549;23;20014;-86
2022/12/30 15:57:21;;;;;;;3.17;0.90;;;;;;;12.00;41.89;99016.75;6042218;23;20033;-86
2022/12/30 16:00:00;;;;;;;0.57;0.50;;;;;;;11.80;41.88;98984.91;6019182;23;20017;-86
2022/12/30 16:02:31;;;;;;;1.70;0.60;;;;;;;12.15;41.92;99048.44;6041257;23;20022;-87
2022/12/30 16:05:02;;;;;;;1.02;0.60;;;;;;;11.97;42.00;99011.84;6019738;23;20189;-86
2022/12/30 16:07:30;;;;;;;1.92;0.65;;;;;;;11.93;42.13;99018.72;6020559;23;20345;-86
2022/12/30 16:10:15;;;;;;;1.10;0.70;;;;;;;12.14;42.08;99050.31;6044526;23;20262;-86
2022/12/30 16:12:45;;;;;;;1.60;0.50;;;;;;;11.92;42.07;99014.41;6067936;23;20142;-86
2022/12/30 16:15:10;;;;;;;1.67;0.60;;;;;;;12.15;41.95;99045.78;6020338;23;20002;-86
2022/12/30 16:17:53;;;;;;;2.90;0.80;;;;;;;12.05;41.78;99030.25;6067812;23;20016;-86
2022/12/30 16:20:38;;;;;;;2.35;0.60;;;;;;;12.02;42.07;99031.53;6020630;23;20442;-87
2022/12/30 16:23:04;;;;;;;;;;;;;;;12.15;41.88;99051.13;6044500;23;20007;-87
2022/12/30 16:25:35;;;;;;;2.10;0.70;;;;;;;12.11;42.26;99049.97;6043436;23;19917;-87
2022/12/30 16:28:04;;;;;;;2.67;0.95;;;;;;;12.04;41.66;99039.34;6044401;23;20014;-87
2022/12/30 16:30:35;;;;;;;2.03;0.80;;;;;;;11.96;42.12;99032.44;6019005;23;20014;-87
2022/12/30 16:33:17;;;;;;;2.08;0.82;;;;;;;11.93;42.03;99032.09;6043338;23;20498;-87
2022/12/30 16:35:47;;;;;;;2.42;0.77;;;;;;;11.87;42.00;99024.97;6044407;23;20010;-87
2022/12/30 16:38:13;;;;;;;1.45;0.77;;;;;;;11.96;42.12;99045.03;6044770;23;20011;-87
2022/12/30 16:40:39;;;;;;;2.08;0.80;;;;;;;11.92;42.11;99043.88;6020275;23;20016;-87
2022/12/30 16:43:05;;;;;;;2.05;0.82;;;;;;;11.87;42.07;99049.06;6044737;23;20061;-87
2022/12/30 16:45:30;;;;;;;3.22;0.80;;;;;;;11.82;41.90;99053.22;6020066;23;20018;-87
2022/12/30 16:47:56;;;;;;;1.80;0.77;;;;;;;12.01;42.34;99074.63;6020201;23;20013;-87
2022/12/30 16:50:22;;;;;;;3.58;0.90;;;;;;;12.04;42.15;99090.22;6020618;23;20014;-87
2022/12/30 16:52:48;;;;;;;1.58;0.65;;;;;;;11.89;42.05;99066.50;6018294;23;20392;-87
2022/12/30 16:55:21;;;;;;;3.03;0.85;;;;;;;11.97;41.97;99079.63;6044588;23;20094;-87
2022/12/30 16:57:47;;;;;;;2.63;0.73;;;;;;;11.77;42.08;99045.06;6020043;23;20321;-87
2022/12/30 17:00:21;;;;;;;2.88;0.80;;;;;;;11.92;41.81;99067.97;6018593;23;20041;-87
2022/12/30 17:02:46;;;;;;;;;;;;;;;12.11;41.98;99104.34;6043999;23;20092;-87
2022/12/30 17:05:18;;;;;;;0.98;0.60;;;;;;;12.13;42.04;99098.75;6041763;23;19909;-87
2022/12/30 17:07:45;;;;;;;2.30;0.75;;;;;;;11.94;42.08;99076.59;6018955;23;20107;-87
2022/12/30 17:13:04;;;;;;;2.25;1.00;;;;;;;11.89;42.02;99081.78;6050960;23;20110;-87
2022/12/30 17:15:30;;;;;;;3.10;0.73;;;;;;;11.99;41.76;99085.56;6020119;23;20061;-87
2022/12/30 17:17:56;;;;;;;2.47;0.70;;;;;;;11.90;42.02;99072.69;6019665;23;20018;-87
2022/12/30 17:20:21;;;;;;;2.55;0.60;;;;;;;11.85;41.88;99073.38;6019153;23;20089;-87
2022/12/30 17:22:47;;;;;;;2.63;0.82;;;;;;;11.97;41.75;99092.16;6043626;23;20387;-87
2022/12/30 17:25:17;;;;;;;1.92;0.70;;;;;;;11.79;42.05;99060.91;6016353;23;20034;-87
2022/12/30 17:27:43;;;;;;;2.47;0.98;;;;;;;12.11;41.96;99120.41;6042756;23;20018;-87
2022/12/30 17:30:16;;;;;;;1.92;0.95;;;;;;;11.88;42.18;99086.28;6018261;23;20011;-86